Flag for United Kingdom

Past Weather in Weston-Super-Mare, England, United Kingdom — Yesterday and Last 2 Weeks

Currently: 46 °F. Light rain. Mostly cloudy. (Weather station: Bristol / Lulsgate, United Kingdom). See more current weather

Past Weather in Weston-Super-Mare — Graph

°F

Weston-Super-Mare Temperature Yesterday

Maximum temperature yesterday: 55 °F (at 11:50 am)
Minimum temperature yesterday: 46 °F (at 12:20 am)
Average temperature yesterday: 49 °F

High & Low Weather Summary for the Past Weeks

 TemperatureHumidityPressure
High61 °F (Oct 20, 1:20 pm)100% (Oct 13, 11:20 pm)30.30 "Hg (Oct 13, 11:20 pm)
Low39 °F (Oct 18, 1:20 am)55% (Oct 19, 1:50 pm)29.30 "Hg (Oct 21, 8:50 am)
Average50 °F88%29.78 "Hg
* Reported Oct 13 9:20 pm — Oct 28 8:20 pm, Weston-Super-Mare. Weather by CustomWeather, © 2020

Note: Actual official high and low records may vary slightly from our data, if they occured in-between our weather recording intervals... More about our weather records

Weston-Super-Mare Weather History for the Previous 24 Hours

Scroll right to see more
 ConditionsComfort  
Time TempWeatherWind HumidityBarometerVisibility
8:20 pm
Wed, Oct 28
46 °FMostly cloudy.12 mph93%29.68 "HgN/A
7:50 pm45 °FPassing clouds.9 mph93%29.68 "HgN/A
7:20 pm45 °FPassing clouds.15 mph87%29.68 "HgN/A
6:50 pm45 °FLight rain. Mostly cloudy.10 mph93%29.65 "HgN/A
6:20 pm45 °FQuite cool.13 mph87%29.65 "HgN/A
5:50 pm45 °FLight rain. Partly cloudy.21 mph93%29.65 "Hg5 mi
4:50 pm46 °FPartly cloudy.12 mph93%29.59 "HgN/A
4:20 pm46 °FBroken clouds.15 mph93%29.59 "HgN/A
3:50 pm48 °FRain showers. Mostly cloudy.13 mph87%29.56 "Hg6 mi
3:20 pm50 °FPartly sunny.13 mph82%29.56 "HgN/A
2:50 pm48 °FPartly sunny.14 mph87%29.56 "HgN/A
2:20 pm48 °FPartly sunny.10 mph87%29.56 "HgN/A
1:50 pm48 °FPartly sunny.13 mph94%29.56 "HgN/A
1:20 pm46 °FLight rain. Broken clouds.16 mph100%29.56 "HgN/A
12:20 pm52 °FPartly sunny.14 mph77%29.53 "HgN/A
11:50 am52 °FMostly cloudy.13 mph77%29.53 "HgN/A
11:20 am48 °FBroken clouds.9 mph87%29.56 "HgN/A
10:50 am45 °FSprinkles. Partly sunny.15 mph93%29.56 "HgN/A
10:20 am50 °FCool.12 mph76%29.56 "HgN/A
9:50 am48 °FCool.12 mph82%29.56 "HgN/A
9:20 am48 °FCool.13 mph82%29.56 "HgN/A
8:50 am48 °FScattered clouds.9 mph82%29.53 "HgN/A
8:20 am48 °FScattered clouds.12 mph82%29.53 "HgN/A
7:50 am46 °FCool.12 mph87%29.53 "HgN/A
7:20 am46 °FCool.13 mph87%29.50 "HgN/A
6:50 am46 °FPassing clouds.12 mph87%29.50 "HgN/A
6:20 am45 °FPassing clouds.10 mph93%29.50 "HgN/A
5:50 am45 °FPartly cloudy.9 mph93%29.50 "HgN/A
5:20 am46 °FPassing clouds.12 mph87%29.50 "HgN/A
4:50 am45 °FQuite cool.13 mph87%29.50 "HgN/A
4:20 am45 °FPassing clouds.12 mph87%29.50 "HgN/A
3:50 am45 °FQuite cool.10 mph87%29.50 "HgN/A
3:20 am45 °FPassing clouds.10 mph93%29.50 "HgN/A
2:50 am45 °FLight rain. Partly cloudy.13 mph93%29.50 "HgN/A
2:20 am46 °FOvercast.10 mph82%29.50 "HgN/A
1:50 am46 °FLight rain. Partly cloudy.12 mph82%29.50 "HgN/A
1:20 am46 °FLight rain. Passing clouds.13 mph82%29.50 "HgN/A
12:50 am46 °FCool.12 mph82%29.50 "HgN/A
12:20 am46 °FCool.12 mph82%29.47 "HgN/A
11:50 pm
Tue, Oct 27
46 °FCool.13 mph82%29.50 "HgN/A
11:20 pm46 °FPassing clouds.12 mph82%29.50 "HgN/A
10:50 pm46 °FPassing clouds.13 mph76%29.50 "HgN/A
10:20 pm46 °FCool.12 mph76%29.50 "HgN/A
9:50 pm46 °FPassing clouds.15 mph82%29.50 "HgN/A
9:20 pm46 °FPassing clouds.13 mph87%29.47 "HgN/A
Weather by CustomWeather, © 2020

See weather overview